Time;durP1;ratioP1;P1;durP2;ratioP2;P2;SDS_P1;SDS_P2;PMS_P1;PMS_P2;Temp;Humidity;BMP_temperature;BMP_pressure;BME280_temperature;BME280_humidity;BME280_pressure;Samples;Min_cycle;Max_cycle;Signal;HPM_P1;HPM_P2
2022/01/05 00:01:50;;;;;;;27.53;16.20;;;11.00;99.90;;;;;;5073983;28;20025;-80
2022/01/05 00:04:16;;;;;;;32.65;17.92;;;10.80;99.90;;;;;;5073831;28;20052;-80
2022/01/05 00:06:42;;;;;;;33.28;17.13;;;10.80;99.90;;;;;;5074081;28;20119;-80
2022/01/05 00:09:08;;;;;;;34.97;17.48;;;10.70;99.90;;;;;;5072527;28;20070;-81
2022/01/05 00:11:35;;;;;;;34.20;18.93;;;10.60;99.90;;;;;;5073873;28;20040;-80
2022/01/05 00:14:02;;;;;;;33.20;18.20;;;10.60;99.90;;;;;;5071536;28;20475;-80
2022/01/05 00:16:28;;;;;;;31.43;17.10;;;10.60;99.90;;;;;;5073225;28;20029;-81
2022/01/05 00:18:54;;;;;;;32.30;17.73;;;10.60;99.90;;;;;;5073570;28;20078;-80
2022/01/05 00:21:20;;;;;;;31.70;16.90;;;10.60;99.90;;;;;;5073759;28;20472;-80
2022/01/05 00:23:46;;;;;;;29.37;16.73;;;10.50;99.90;;;;;;5073242;28;20029;-81
2022/01/05 00:26:12;;;;;;;26.70;15.30;;;10.60;99.90;;;;;;5073722;28;20021;-80
2022/01/05 00:28:39;;;;;;;27.30;15.13;;;10.60;99.90;;;;;;5073954;28;20020;-80
2022/01/05 00:31:05;;;;;;;27.95;15.95;;;10.50;99.90;;;;;;5072923;28;20059;-80
2022/01/05 00:33:31;;;;;;;33.03;16.37;;;10.60;99.90;;;;;;5073146;28;20063;-79
2022/01/05 00:35:57;;;;;;;27.15;15.32;;;10.60;99.90;;;;;;5073366;28;20029;-81
2022/01/05 00:38:23;;;;;;;31.70;17.20;;;10.60;99.90;;;;;;5073245;28;20350;-80
2022/01/05 00:40:49;;;;;;;26.63;15.27;;;10.50;99.90;;;;;;5073357;28;20504;-79
2022/01/05 00:43:15;;;;;;;27.05;16.00;;;10.40;99.90;;;;;;5073326;28;20024;-80
2022/01/05 00:45:41;;;;;;;27.48;15.75;;;10.40;99.90;;;;;;5072882;28;20338;-81
2022/01/05 00:48:07;;;;;;;27.75;15.07;;;10.50;99.90;;;;;;5072855;28;20017;-80
2022/01/05 00:50:34;;;;;;;27.57;16.77;;;10.50;99.90;;;;;;5073276;28;20071;-80
2022/01/05 00:53:01;;;;;;;27.15;15.27;;;10.50;99.90;;;;;;5072665;28;20025;-80
2022/01/05 00:55:28;;;;;;;30.20;16.17;;;10.60;99.90;;;;;;5072502;28;20039;-81
2022/01/05 00:57:54;;;;;;;24.83;14.93;;;10.60;99.90;;;;;;5072672;28;20111;-80
2022/01/05 01:00:21;;;;;;;28.33;15.90;;;10.60;99.90;;;;;;5072748;28;20127;-80
2022/01/05 01:02:47;;;;;;;30.63;16.25;;;10.70;99.90;;;;;;5072984;28;20119;-80
2022/01/05 01:05:14;;;;;;;24.52;14.98;;;10.70;99.90;;;;;;5071743;28;20020;-79
2022/01/05 01:07:41;;;;;;;25.25;14.40;;;10.80;99.90;;;;;;5072908;28;20029;-80
2022/01/05 01:10:08;;;;;;;24.65;14.60;;;10.80;99.90;;;;;;5073193;28;20023;-80
2022/01/05 01:12:34;;;;;;;25.25;14.18;;;10.80;99.90;;;;;;5073037;28;20378;-80
2022/01/05 01:15:03;;;;;;;25.63;14.98;;;10.90;99.90;;;;;;5073271;28;20071;-80
2022/01/05 01:17:29;;;;;;;24.67;14.65;;;10.90;99.90;;;;;;5073216;28;20059;-82
2022/01/05 01:19:55;;;;;;;21.37;14.10;;;10.90;99.90;;;;;;5073134;28;20029;-82
2022/01/05 01:22:22;;;;;;;23.55;14.32;;;10.90;99.90;;;;;;5071763;28;20043;-80
2022/01/05 01:24:48;;;;;;;26.52;13.30;;;10.80;99.90;;;;;;5070398;28;20020;-80
2022/01/05 01:27:14;;;;;;;19.48;12.50;;;10.90;99.90;;;;;;5073028;28;20072;-81
2022/01/05 01:29:40;;;;;;;27.93;13.37;;;10.90;99.90;;;;;;5072514;28;20100;-80
2022/01/05 01:32:06;;;;;;;22.20;12.75;;;10.80;99.90;;;;;;5072126;28;20071;-80
2022/01/05 01:34:33;;;;;;;22.23;12.00;;;10.70;99.90;;;;;;5073075;28;20029;-82
2022/01/05 01:36:59;;;;;;;17.65;11.27;;;10.70;99.90;;;;;;5072870;28;20032;-81
2022/01/05 01:39:25;;;;;;;18.65;11.65;;;10.60;99.90;;;;;;5072943;28;20028;-80
2022/01/05 01:41:51;;;;;;;17.02;11.10;;;10.50;99.90;;;;;;5072402;28;20029;-79
2022/01/05 01:44:17;;;;;;;18.33;10.82;;;10.60;99.90;;;;;;5072263;28;20092;-80
2022/01/05 01:46:43;;;;;;;17.05;10.38;;;10.60;99.90;;;;;;5071899;28;20047;-80
2022/01/05 01:49:09;;;;;;;16.40;10.00;;;10.60;99.90;;;;;;5072049;28;20033;-79
2022/01/05 01:51:36;;;;;;;18.58;10.07;;;10.60;99.90;;;;;;5072133;28;20030;-80
2022/01/05 01:54:03;;;;;;;18.50;10.40;;;10.70;99.90;;;;;;5072025;28;20021;-80
2022/01/05 01:56:33;;;;;;;15.88;10.52;;;10.60;99.90;;;;;;5072343;28;20497;-80
2022/01/05 01:59:00;;;;;;;16.73;10.55;;;10.50;99.90;;;;;;5070667;28;20032;-80
2022/01/05 02:01:26;;;;;;;;;;;10.40;99.90;;;;;;5054186;28;20039;-80
2022/01/05 02:03:52;;;;;;;15.98;9.52;;;10.30;99.90;;;;;;5072051;28;19973;-80
2022/01/05 02:06:19;;;;;;;15.82;9.43;;;10.20;99.90;;;;;;5072141;28;20066;-80
2022/01/05 02:08:45;;;;;;;12.43;7.70;;;10.20;99.90;;;;;;5072029;28;20024;-80
2022/01/05 02:11:13;;;;;;;12.77;8.05;;;10.00;99.90;;;;;;5072073;28;20025;-80
2022/01/05 02:13:40;;;;;;;12.27;8.05;;;9.80;99.90;;;;;;5072245;28;20029;-80
2022/01/05 02:16:07;;;;;;;16.13;9.05;;;9.80;99.90;;;;;;5071820;28;20035;-80
2022/01/05 02:21:10;;;;;;;16.10;8.05;;;9.90;99.90;;;;;;5071630;28;19920;-80
2022/01/05 02:23:37;;;;;;;10.68;7.60;;;10.00;99.90;;;;;;5072218;28;20023;-80
2022/01/05 02:26:05;;;;;;;11.93;7.10;;;10.20;99.90;;;;;;5071900;28;20031;-80
2022/01/05 02:28:31;;;;;;;11.52;7.43;;;10.30;99.90;;;;;;5072114;28;20040;-80
2022/01/05 02:30:57;;;;;;;18.60;7.72;;;10.40;99.90;;;;;;5069890;28;20076;-80
2022/01/05 02:33:25;;;;;;;11.37;7.77;;;10.50;99.90;;;;;;5071637;28;20029;-77
2022/01/05 02:35:51;;;;;;;13.85;7.20;;;10.50;99.90;;;;;;5072148;28;20036;-80
2022/01/05 02:38:22;;;;;;;14.57;7.65;;;10.50;99.90;;;;;;5075310;28;20017;-80
2022/01/05 02:40:50;;;;;;;12.38;5.97;;;10.60;99.90;;;;;;5075882;28;20124;-79
2022/01/05 02:43:16;;;;;;;16.02;8.02;;;10.70;99.90;;;;;;5076320;28;20020;-80
2022/01/05 02:45:42;;;;;;;13.18;7.22;;;10.90;99.90;;;;;;5074725;28;20027;-80
2022/01/05 02:48:09;;;;;;;13.80;7.18;;;10.90;99.90;;;;;;5074632;28;20035;-80
2022/01/05 02:51:05;;;;;;;14.35;7.55;;;11.00;99.90;;;;;;5075611;28;20043;-81
2022/01/05 02:53:31;;;;;;;17.30;8.18;;;11.10;99.90;;;;;;5074114;28;20025;-80
2022/01/05 02:55:57;;;;;;;14.55;8.52;;;11.10;99.90;;;;;;5075774;28;20325;-80
2022/01/05 02:58:23;;;;;;;12.07;7.13;;;10.90;99.90;;;;;;5075665;28;20024;-80
2022/01/05 03:00:51;;;;;;;14.40;7.70;;;10.80;99.90;;;;;;5075507;28;20041;-80
2022/01/05 03:03:17;;;;;;;11.27;6.80;;;10.80;99.90;;;;;;5075596;28;20439;-80
2022/01/05 03:05:43;;;;;;;15.25;6.78;;;10.70;99.90;;;;;;5075403;28;20038;-81
2022/01/05 03:08:09;;;;;;;12.82;7.60;;;10.50;99.90;;;;;;5075928;28;20021;-80
2022/01/05 03:10:36;;;;;;;15.13;7.17;;;10.50;99.90;;;;;;5075361;28;20056;-80
2022/01/05 03:13:02;;;;;;;14.17;7.70;;;10.60;99.90;;;;;;5075251;28;20024;-81
2022/01/05 03:15:28;;;;;;;14.75;7.03;;;10.70;99.90;;;;;;5074962;28;20032;-80
2022/01/05 03:17:54;;;;;;;14.60;7.57;;;10.80;99.90;;;;;;5073650;28;20032;-80
2022/01/05 03:20:22;;;;;;;21.27;8.73;;;10.80;99.90;;;;;;5075087;28;20278;-80
2022/01/05 03:22:49;;;;;;;12.40;7.25;;;10.70;99.90;;;;;;5075132;28;20135;-80
2022/01/05 03:25:19;;;;;;;12.65;7.32;;;10.70;99.90;;;;;;5073583;28;20127;-81
2022/01/05 03:27:50;;;;;;;15.68;7.80;;;10.80;99.90;;;;;;5075243;28;20532;-80
2022/01/05 03:30:26;;;;;;;15.15;7.97;;;10.80;99.90;;;;;;5072600;28;20164;-81
2022/01/05 03:35:32;;;;;;;17.80;8.63;;;11.00;99.90;;;;;;5073903;28;20488;-80
2022/01/05 03:37:58;;;;;;;14.88;7.93;;;11.10;99.90;;;;;;5073788;28;20099;-80
2022/01/05 03:40:25;;;;;;;15.88;8.75;;;11.10;99.90;;;;;;5074908;28;20032;-80
2022/01/05 03:42:51;;;;;;;22.00;9.23;;;11.20;99.90;;;;;;5074853;28;20028;-80
2022/01/05 03:45:18;;;;;;;17.67;7.65;;;11.30;99.90;;;;;;5074228;28;20028;-81
2022/01/05 03:48:04;;;;;;;16.85;8.60;;;11.30;99.90;;;;;;5073880;28;20029;-81
2022/01/05 03:50:30;;;;;;;;;;;11.30;99.90;;;;;;5073542;28;20055;-81
2022/01/05 03:52:56;;;;;;;14.73;8.10;;;11.30;99.90;;;;;;5074441;28;20003;-80
2022/01/05 03:55:22;;;;;;;19.63;9.40;;;11.30;99.90;;;;;;5074516;28;20666;-80
2022/01/05 03:57:48;;;;;;;19.73;9.88;;;11.30;99.90;;;;;;5075276;28;20047;-80
2022/01/05 04:00:15;;;;;;;17.00;10.05;;;11.30;99.90;;;;;;5074670;28;20045;-80
2022/01/05 04:02:42;;;;;;;22.77;9.00;;;11.40;99.90;;;;;;5073364;28;20027;-81
2022/01/05 04:05:08;;;;;;;15.05;9.15;;;11.40;99.90;;;;;;5075028;28;20086;-81
2022/01/05 04:07:35;;;;;;;21.83;9.45;;;11.30;99.90;;;;;;5074837;28;20029;-81
2022/01/05 04:10:01;;;;;;;22.83;9.38;;;11.20;99.90;;;;;;5074927;28;20033;-81
2022/01/05 04:12:27;;;;;;;19.87;10.67;;;11.10;99.90;;;;;;5074937;28;20071;-81
2022/01/05 04:14:53;;;;;;;22.98;10.38;;;11.00;99.90;;;;;;5075105;28;20497;-81
2022/01/05 04:17:21;;;;;;;13.83;9.30;;;11.10;99.90;;;;;;5074789;28;20481;-81
2022/01/05 04:19:47;;;;;;;17.05;9.52;;;11.00;99.90;;;;;;5074710;28;20468;-81
2022/01/05 04:22:13;;;;;;;16.97;8.93;;;10.90;99.90;;;;;;5074708;28;20389;-81
2022/01/05 04:24:39;;;;;;;23.17;9.80;;;10.80;99.90;;;;;;5075486;28;20495;-81
2022/01/05 04:27:05;;;;;;;14.43;9.02;;;10.70;99.90;;;;;;5075101;28;20816;-81
2022/01/05 04:29:31;;;;;;;19.00;9.30;;;10.60;99.90;;;;;;5074784;28;20025;-81
2022/01/05 04:31:58;;;;;;;15.77;9.35;;;10.60;99.90;;;;;;5074532;28;20147;-82
2022/01/05 04:34:24;;;;;;;13.75;8.60;;;10.50;99.90;;;;;;5075393;28;20036;-81
2022/01/05 04:36:50;;;;;;;20.63;9.80;;;10.50;99.90;;;;;;5082098;28;20150;-81
2022/01/05 04:39:16;;;;;;;19.77;10.07;;;10.50;99.90;;;;;;5087897;28;20033;-81
2022/01/05 04:41:42;;;;;;;16.40;9.25;;;10.50;99.90;;;;;;5072626;28;20040;-81
2022/01/05 04:44:09;;;;;;;18.25;9.90;;;10.50;99.90;;;;;;5082179;28;20024;-80
2022/01/05 04:46:35;;;;;;;18.73;9.93;;;10.50;99.90;;;;;;5085695;28;20129;-81
2022/01/05 04:49:01;;;;;;;20.10;10.40;;;10.50;99.90;;;;;;5074925;28;20468;-81
2022/01/05 04:51:27;;;;;;;25.03;10.20;;;10.60;99.90;;;;;;5074855;28;20218;-81
2022/01/05 04:53:53;;;;;;;21.60;9.32;;;10.70;99.90;;;;;;5074518;28;20305;-81
2022/01/05 04:56:19;;;;;;;26.23;10.40;;;10.80;99.90;;;;;;5074459;28;20481;-81
2022/01/05 04:58:45;;;;;;;21.58;10.05;;;11.00;99.90;;;;;;5074278;28;20035;-81
2022/01/05 05:01:11;;;;;;;20.40;10.90;;;11.00;99.90;;;;;;5073020;28;20128;-80
2022/01/05 05:03:38;;;;;;;21.67;10.32;;;11.00;99.90;;;;;;5074594;28;20024;-80
2022/01/05 05:06:04;;;;;;;19.47;10.37;;;11.10;99.90;;;;;;5074187;28;20036;-81
2022/01/05 05:08:30;;;;;;;24.00;10.50;;;11.00;99.90;;;;;;5074109;28;20109;-80
2022/01/05 05:10:56;;;;;;;26.50;10.65;;;11.00;99.90;;;;;;5074248;28;20369;-80
2022/01/05 05:13:22;;;;;;;28.83;10.88;;;11.00;99.90;;;;;;5073619;28;20388;-80
2022/01/05 05:15:48;;;;;;;24.40;10.10;;;11.00;99.90;;;;;;5074129;28;20035;-80
2022/01/05 05:18:14;;;;;;;23.58;10.30;;;11.00;99.90;;;;;;5074006;28;20028;-81
2022/01/05 05:20:40;;;;;;;23.60;10.05;;;11.00;99.90;;;;;;5086753;28;20070;-81
2022/01/05 05:23:07;;;;;;;25.58;10.05;;;11.00;99.90;;;;;;5094245;28;20513;-78
2022/01/05 05:25:33;;;;;;;19.20;9.38;;;11.00;99.90;;;;;;5094307;28;20026;-81
2022/01/05 05:27:59;;;;;;;21.77;10.98;;;11.10;99.90;;;;;;5091723;28;20051;-78
2022/01/05 05:30:26;;;;;;;21.23;10.70;;;11.00;99.90;;;;;;5092755;28;20020;-76
2022/01/05 05:32:57;;;;;;;24.58;10.10;;;11.00;99.90;;;;;;5092841;28;20074;-81
2022/01/05 05:35:26;;;;;;;25.40;12.45;;;11.00;99.90;;;;;;5092914;28;20016;-81
2022/01/05 05:37:52;;;;;;;24.50;10.43;;;11.00;99.90;;;;;;5092499;28;20012;-81
2022/01/05 05:40:18;;;;;;;24.52;10.70;;;11.10;99.90;;;;;;5091902;28;20438;-81
2022/01/05 05:42:44;;;;;;;22.83;11.20;;;11.00;99.90;;;;;;5087064;28;20028;-80
2022/01/05 05:45:10;;;;;;;25.42;11.23;;;11.00;99.90;;;;;;5092551;28;20618;-76
2022/01/05 05:47:36;;;;;;;26.23;10.50;;;11.10;99.90;;;;;;5092743;28;20023;-81
2022/01/05 05:50:04;;;;;;;19.55;10.90;;;11.10;99.90;;;;;;5092619;28;20035;-81
2022/01/05 05:52:30;;;;;;;21.05;10.25;;;11.10;99.90;;;;;;5092513;28;20016;-79
2022/01/05 05:54:56;;;;;;;28.93;11.43;;;11.00;99.90;;;;;;5093694;28;20103;-81
2022/01/05 05:57:22;;;;;;;16.90;10.43;;;11.00;99.90;;;;;;5093652;28;20031;-81
2022/01/05 05:59:48;;;;;;;20.03;10.00;;;11.00;99.90;;;;;;5094369;28;20464;-80
2022/01/05 06:02:14;;;;;;;20.77;11.07;;;11.00;99.90;;;;;;5093947;28;20050;-80
2022/01/05 06:04:40;;;;;;;24.17;10.73;;;11.10;99.90;;;;;;5093487;28;20032;-79
2022/01/05 06:07:06;;;;;;;25.47;11.30;;;11.10;99.90;;;;;;5093403;28;20017;-81
2022/01/05 06:09:32;;;;;;;21.37;10.83;;;11.30;99.90;;;;;;5092345;28;20055;-81
2022/01/05 06:11:58;;;;;;;25.17;10.52;;;11.30;99.90;;;;;;5093371;28;20398;-81
2022/01/05 06:14:24;;;;;;;27.35;11.32;;;11.30;99.90;;;;;;5093752;28;20042;-81
2022/01/05 06:16:50;;;;;;;13.77;8.27;;;11.30;99.90;;;;;;5093540;28;20032;-80
2022/01/05 06:19:16;;;;;;;26.90;13.00;;;11.20;99.90;;;;;;5093621;28;20027;-81
2022/01/05 06:21:44;;;;;;;26.50;11.05;;;11.20;99.90;;;;;;5093869;28;20028;-82
2022/01/05 06:24:11;;;;;;;24.48;10.57;;;11.10;99.90;;;;;;5093420;28;20028;-81
2022/01/05 06:26:37;;;;;;;25.25;10.80;;;11.20;99.90;;;;;;5093682;28;20035;-82
2022/01/05 06:29:04;;;;;;;22.67;10.82;;;11.20;99.90;;;;;;5093390;28;20038;-82
2022/01/05 06:31:30;;;;;;;20.00;10.65;;;11.20;99.90;;;;;;5092469;28;20060;-81
2022/01/05 06:33:58;;;;;;;20.88;9.65;;;11.30;99.90;;;;;;5092663;28;20099;-81
2022/01/05 06:36:24;;;;;;;26.27;10.27;;;11.40;99.90;;;;;;5093105;28;20031;-80
2022/01/05 06:38:50;;;;;;;22.38;9.43;;;11.40;99.90;;;;;;5092819;28;20028;-80
2022/01/05 06:41:16;;;;;;;22.88;10.55;;;11.50;99.90;;;;;;5092735;28;20067;-79
2022/01/05 06:43:42;;;;;;;33.13;10.73;;;11.60;99.90;;;;;;5092843;28;20077;-81
2022/01/05 06:46:08;;;;;;;23.70;10.97;;;11.50;99.90;;;;;;5093106;28;20032;-80
2022/01/05 06:48:34;;;;;;;26.15;12.48;;;11.40;99.90;;;;;;5092758;28;20062;-81
2022/01/05 06:51:00;;;;;;;29.30;11.60;;;11.40;99.90;;;;;;5092707;28;20032;-81
2022/01/05 06:53:27;;;;;;;28.10;10.97;;;11.30;99.90;;;;;;5092497;28;20020;-81
2022/01/05 06:55:54;;;;;;;31.90;12.35;;;11.40;99.90;;;;;;5092810;28;20114;-81
2022/01/05 06:58:20;;;;;;;23.73;10.27;;;11.40;99.90;;;;;;5092533;28;20024;-81
2022/01/05 07:00:46;;;;;;;20.48;11.10;;;11.50;99.90;;;;;;5092399;28;20066;-82
2022/01/05 07:03:12;;;;;;;19.57;10.47;;;11.60;99.90;;;;;;5092271;28;20024;-82
2022/01/05 07:05:38;;;;;;;21.33;10.27;;;11.60;99.90;;;;;;5092448;28;20453;-82
2022/01/05 07:08:06;;;;;;;24.83;10.23;;;11.60;99.90;;;;;;5091895;28;20123;-80
2022/01/05 07:10:32;;;;;;;22.88;9.40;;;11.80;99.90;;;;;;5091693;28;20489;-82
2022/01/05 07:12:58;;;;;;;36.15;12.45;;;11.80;99.90;;;;;;5092706;28;20069;-82
2022/01/05 07:15:25;;;;;;;22.00;8.80;;;11.90;99.90;;;;;;5091924;28;20025;-82
2022/01/05 07:17:52;;;;;;;23.92;10.27;;;11.90;99.90;;;;;;5091912;28;20493;-83
2022/01/05 07:20:18;;;;;;;18.55;9.65;;;11.90;99.90;;;;;;5092384;28;20028;-83
2022/01/05 07:22:44;;;;;;;22.20;9.52;;;12.10;99.90;;;;;;5092659;28;20107;-82
2022/01/05 07:25:10;;;;;;;23.48;8.95;;;12.20;99.90;;;;;;5096283;28;20032;-82
2022/01/05 07:27:37;;;;;;;29.67;9.20;;;12.30;99.90;;;;;;5096134;28;20055;-83
2022/01/05 07:30:04;;;;;;;;;;;12.40;99.90;;;;;;5096149;28;20111;-82
2022/01/05 07:32:31;;;;;;;19.70;7.72;;;12.50;99.90;;;;;;5094837;28;19919;-83
2022/01/05 07:34:57;;;;;;;21.10;8.27;;;12.60;99.90;;;;;;5095884;28;20123;-84
2022/01/05 07:37:23;;;;;;;19.52;7.95;;;12.70;99.90;;;;;;5093836;28;20020;-81
2022/01/05 07:39:49;;;;;;;20.95;8.25;;;12.90;99.90;;;;;;5093829;28;20024;-83
2022/01/05 07:42:16;;;;;;;23.77;8.68;;;13.10;99.90;;;;;;5095057;28;20115;-83
2022/01/05 07:44:43;;;;;;;24.73;8.23;;;13.20;99.90;;;;;;5096234;28;20139;-82
2022/01/05 07:47:10;;;;;;;17.40;8.18;;;13.30;99.90;;;;;;5095646;28;20032;-82
2022/01/05 07:49:37;;;;;;;17.85;7.60;;;13.60;99.90;;;;;;5096611;28;20016;-81
2022/01/05 07:52:05;;;;;;;21.98;8.43;;;13.80;99.90;;;;;;5078452;28;20134;-82
2022/01/05 07:54:32;;;;;;;22.48;8.85;;;13.80;99.90;;;;;;5075205;28;20021;-81
2022/01/05 07:56:59;;;;;;;30.88;8.23;;;13.90;99.90;;;;;;5075411;28;20031;-82
2022/01/05 07:59:25;;;;;;;18.70;6.68;;;13.90;99.90;;;;;;5075634;28;20025;-82
2022/01/05 08:01:51;;;;;;;20.47;8.03;;;13.80;99.90;;;;;;5067446;22;20057;-82
2022/01/05 08:04:18;;;;;;;17.37;7.67;;;13.90;99.90;;;;;;5054876;28;20263;-81
2022/01/05 08:06:44;;;;;;;19.52;7.15;;;13.90;99.90;;;;;;5055013;28;20028;-82
2022/01/05 08:09:11;;;;;;;20.77;7.60;;;14.00;99.90;;;;;;5054855;28;20028;-82
2022/01/05 08:11:37;;;;;;;21.73;8.37;;;14.10;99.90;;;;;;5054840;28;20759;-81
2022/01/05 08:14:03;;;;;;;15.65;8.10;;;14.10;99.90;;;;;;5055619;28;20091;-82
2022/01/05 08:16:29;;;;;;;25.20;8.27;;;14.10;99.90;;;;;;5054856;28;20028;-82
2022/01/05 08:18:55;;;;;;;22.30;8.10;;;14.20;99.90;;;;;;5054831;28;20017;-82
2022/01/05 08:21:22;;;;;;;23.20;8.50;;;14.30;99.90;;;;;;5054308;28;20291;-81
2022/01/05 08:23:48;;;;;;;20.27;7.78;;;14.20;99.90;;;;;;5036470;28;20025;-82
2022/01/05 08:26:15;;;;;;;27.45;8.65;;;14.20;99.90;;;;;;5055273;28;20028;-82
2022/01/05 08:28:41;;;;;;;21.50;8.90;;;14.20;99.90;;;;;;5054830;28;20064;-82
2022/01/05 08:31:07;;;;;;;23.10;8.70;;;14.20;99.90;;;;;;5055071;28;20024;-83
2022/01/05 08:33:34;;;;;;;18.77;8.35;;;14.10;99.90;;;;;;5054845;28;20344;-82
2022/01/05 08:36:02;;;;;;;26.13;8.80;;;14.20;99.90;;;;;;5054399;28;20028;-82
2022/01/05 08:38:29;;;;;;;21.85;8.82;;;14.20;99.90;;;;;;5054977;28;20017;-81
2022/01/05 08:40:55;;;;;;;23.23;8.23;;;14.20;99.90;;;;;;5054969;28;20123;-82
2022/01/05 08:43:21;;;;;;;24.43;8.63;;;14.20;99.90;;;;;;5054837;28;20100;-82
2022/01/05 08:45:48;;;;;;;19.88;7.20;;;14.30;99.90;;;;;;5036249;28;20076;-82
2022/01/05 08:48:15;;;;;;;19.67;7.90;;;14.30;99.90;;;;;;5054189;28;20060;-82
2022/01/05 08:50:41;;;;;;;19.85;6.68;;;14.40;99.90;;;;;;5053825;28;20110;-83
2022/01/05 08:53:08;;;;;;;19.50;5.85;;;14.40;99.90;;;;;;5054245;28;20132;-83
2022/01/05 08:55:37;;;;;;;20.17;6.25;;;14.40;99.90;;;;;;5035768;28;20369;-82
2022/01/05 08:58:05;;;;;;;18.42;5.90;;;14.50;99.90;;;;;;5053893;28;20052;-83
2022/01/05 09:00:32;;;;;;;16.25;5.05;;;14.60;99.90;;;;;;5053417;28;20029;-83
2022/01/05 09:02:59;;;;;;;16.85;5.05;;;14.70;99.90;;;;;;5054363;28;20052;-83
2022/01/05 09:05:26;;;;;;;18.20;5.18;;;14.80;99.90;;;;;;5035687;28;20024;-83
2022/01/05 09:07:52;;;;;;;19.85;5.10;;;15.00;99.90;;;;;;5053844;28;20037;-82
2022/01/05 09:10:18;;;;;;;15.00;5.13;;;15.20;99.90;;;;;;5053543;28;20021;-83
2022/01/05 09:12:45;;;;;;;25.90;5.80;;;15.40;99.90;;;;;;5035532;28;20268;-83
2022/01/05 09:15:11;;;;;;;25.95;5.97;;;15.60;99.90;;;;;;5053712;28;20036;-84
2022/01/05 09:17:37;;;;;;;17.15;5.15;;;16.00;99.90;;;;;;5054518;28;20519;-83
2022/01/05 09:20:05;;;;;;;22.77;5.55;;;16.20;99.90;;;;;;5053743;28;20032;-83
2022/01/05 09:22:31;;;;;;;16.80;5.03;;;16.30;99.90;;;;;;5053992;28;20106;-83
2022/01/05 09:24:57;;;;;;;17.30;5.15;;;16.40;99.90;;;;;;5054194;28;20017;-83
2022/01/05 09:27:23;;;;;;;17.42;5.07;;;16.20;99.90;;;;;;5053922;28;20029;-80
2022/01/05 09:29:50;;;;;;;18.80;5.30;;;16.10;99.90;;;;;;5053714;28;20025;-83
2022/01/05 09:32:16;;;;;;;21.25;5.13;;;16.10;99.90;;;;;;5053496;28;20067;-81
2022/01/05 09:34:43;;;;;;;20.23;4.90;;;16.30;99.90;;;;;;5036914;28;20409;-82
2022/01/05 09:37:35;;;;;;;17.20;4.65;;;16.50;99.90;;;;;;5054051;28;20033;-81
2022/01/05 09:42:42;;;;;;;17.30;4.15;;;16.70;99.90;;;;;;5053958;28;20055;-82
2022/01/05 09:45:17;;;;;;;15.52;3.88;;;16.80;99.90;;;;;;5053989;28;20347;-81
2022/01/05 09:48:10;;;;;;;16.88;4.88;;;16.80;99.90;;;;;;5035323;28;20033;-81
2022/01/05 09:50:44;;;;;;;22.95;4.63;;;16.90;99.90;;;;;;5053629;28;20105;-76
2022/01/05 09:53:12;;;;;;;22.20;5.10;;;17.20;99.90;;;;;;5053308;28;20021;-80
2022/01/05 09:55:38;;;;;;;20.30;4.25;;;17.40;99.90;;;;;;5052855;28;20036;-80
2022/01/05 09:58:04;;;;;;;21.42;4.53;;;17.30;99.90;;;;;;5053301;28;20052;-80
2022/01/05 10:00:30;;;;;;;20.55;4.78;;;17.30;99.90;;;;;;5052615;28;20060;-82
2022/01/05 10:02:56;;;;;;;18.83;3.97;;;17.40;99.90;;;;;;5053110;28;20418;-80
2022/01/05 10:05:24;;;;;;;15.48;3.67;;;17.20;99.90;;;;;;5052985;28;20029;-81
2022/01/05 10:07:50;;;;;;;17.65;5.40;;;17.20;99.90;;;;;;5053093;28;20028;-80
2022/01/05 10:10:16;;;;;;;19.05;4.05;;;17.30;99.90;;;;;;5052806;28;20384;-81
2022/01/05 10:12:43;;;;;;;17.40;3.97;;;17.10;99.90;;;;;;5051870;28;20021;-80
2022/01/05 10:15:09;;;;;;;18.13;4.38;;;17.20;99.90;;;;;;5033530;28;20535;-80
2022/01/05 10:17:36;;;;;;;20.80;4.65;;;17.50;99.90;;;;;;5033510;28;20032;-75
2022/01/05 10:20:09;;;;;;;;;;;17.90;99.90;;;;;;5047367;28;20034;-81
2022/01/05 10:22:43;;;;;;;15.18;4.10;;;18.30;99.90;;;;;;5032305;28;20092;-81
2022/01/05 10:25:22;;;;;;;15.48;4.22;;;18.50;99.90;;;;;;5032665;28;20029;-81
2022/01/05 10:28:03;;;;;;;15.80;4.32;;;18.70;99.90;;;;;;5014549;28;20025;-81
2022/01/05 10:30:39;;;;;;;23.65;5.20;;;18.70;99.90;;;;;;5032524;28;20045;-80
2022/01/05 10:33:08;;;;;;;22.15;4.90;;;18.90;99.90;;;;;;5016322;28;20048;-81
2022/01/05 10:35:34;;;;;;;18.40;5.65;;;18.90;99.90;;;;;;5034072;28;20033;-81
2022/01/05 10:38:04;;;;;;;13.27;3.25;;;18.90;99.90;;;;;;5051965;28;20033;-82
2022/01/05 10:40:37;;;;;;;11.68;3.58;;;18.90;99.90;;;;;;5051733;28;20047;-80
2022/01/05 10:43:09;;;;;;;17.48;3.55;;;18.60;99.90;;;;;;5052385;28;20017;-81
2022/01/05 10:45:41;;;;;;;12.43;2.97;;;18.40;99.90;;;;;;5033912;28;20025;-81
2022/01/05 10:48:13;;;;;;;13.68;2.90;;;18.40;99.90;;;;;;5051938;28;20468;-80
2022/01/05 10:50:41;;;;;;;13.93;3.58;;;18.60;99.90;;;;;;5051374;28;20500;-80
2022/01/05 10:53:08;;;;;;;14.52;2.80;;;18.70;99.90;;;;;;5051914;28;20021;-79
2022/01/05 10:55:43;;;;;;;14.63;3.33;;;18.90;99.90;;;;;;5052007;28;20025;-81
2022/01/05 10:58:19;;;;;;;15.27;3.33;;;18.70;99.90;;;;;;5053916;28;20055;-80
2022/01/05 11:00:50;;;;;;;13.52;3.17;;;18.40;99.90;;;;;;5055865;28;20051;-80
2022/01/05 11:03:40;;;;;;;19.38;3.17;;;18.00;99.90;;;;;;5038533;28;20049;-80
2022/01/05 11:06:07;;;;;;;16.73;3.03;;;17.70;99.90;;;;;;5038047;28;20025;-79
2022/01/05 11:09:00;;;;;;;13.68;3.00;;;17.70;99.90;;;;;;5055053;28;20103;-79
2022/01/05 11:11:30;;;;;;;13.93;3.10;;;17.90;99.90;;;;;;5055415;28;20090;-80
2022/01/05 11:13:56;;;;;;;11.10;2.88;;;18.10;99.90;;;;;;5055819;28;20078;-81
2022/01/05 11:20:24;;;;;;;;;;;18.10;99.90;;;;;;4969925;28;20079;-74
2022/01/05 11:22:50;;;;;;;13.07;2.50;;;18.20;99.90;;;;;;4973615;28;19992;-79
2022/01/05 11:26:21;;;;;;;14.25;2.80;;;18.30;99.90;;;;;;4974908;28;20491;-74
2022/01/05 11:28:47;;;;;;;20.90;2.83;;;18.60;99.90;;;;;;4975015;28;20033;-80
2022/01/05 11:31:14;;;;;;;9.65;2.47;;;18.70;99.90;;;;;;4974245;28;20101;-80
2022/01/05 11:33:40;;;;;;;12.50;2.75;;;18.90;99.90;;;;;;4974274;28;20423;-80
2022/01/05 11:36:58;;;;;;;23.83;3.45;;;19.10;99.90;;;;;;4974795;28;20039;-75
2022/01/05 11:39:55;;;;;;;16.13;2.72;;;19.10;99.90;;;;;;4988017;28;20046;-76
2022/01/05 11:42:34;;;;;;;17.90;3.03;;;19.00;99.90;;;;;;4914450;29;20063;-80
2022/01/05 11:46:03;;;;;;;10.45;2.25;;;19.30;99.90;;;;;;4915789;29;20027;-75
2022/01/05 11:48:40;;;;;;;11.30;2.42;;;19.40;99.90;;;;;;4897796;29;20048;-81
2022/01/05 11:51:06;;;;;;;14.75;2.72;;;19.60;99.90;;;;;;4898436;29;20052;-80
2022/01/05 11:53:44;;;;;;;14.38;2.60;;;19.60;99.90;;;;;;4901140;29;20047;-81
2022/01/05 11:56:14;;;;;;;16.30;2.90;;;19.30;99.90;;;;;;4951670;28;20038;-81
2022/01/05 11:59:01;;;;;;;11.63;2.78;;;19.20;99.90;;;;;;4993867;28;20479;-80
2022/01/05 12:01:28;;;;;;;15.57;2.42;;;19.20;99.90;;;;;;4983220;28;20054;-80
2022/01/05 12:03:58;;;;;;;15.25;2.90;;;19.30;99.90;;;;;;4973884;28;20055;-80
2022/01/05 12:06:25;;;;;;;9.50;2.72;;;19.20;99.90;;;;;;4974103;28;20066;-82
2022/01/05 12:08:54;;;;;;;13.95;2.88;;;19.20;99.90;;;;;;4973641;28;20023;-83
2022/01/05 12:11:36;;;;;;;16.70;3.08;;;19.20;99.90;;;;;;4973811;28;20039;-83
2022/01/05 12:14:05;;;;;;;14.40;2.97;;;19.10;99.90;;;;;;4973650;28;20042;-82
2022/01/05 12:16:55;;;;;;;17.25;3.40;;;19.10;99.90;;;;;;4974181;28;20101;-82
2022/01/05 12:19:22;;;;;;;17.05;2.88;;;19.00;99.90;;;;;;5006363;28;20097;-82
2022/01/05 12:21:50;;;;;;;12.48;2.95;;;19.00;99.90;;;;;;5015026;28;20065;-80
2022/01/05 12:24:18;;;;;;;13.80;3.38;;;19.10;99.90;;;;;;5015056;28;20017;-81
2022/01/05 12:26:44;;;;;;;12.25;2.72;;;19.00;99.90;;;;;;5015208;28;20022;-82
2022/01/05 12:29:11;;;;;;;16.27;3.58;;;19.10;99.90;;;;;;5015017;28;20022;-82
2022/01/05 12:32:03;;;;;;;10.75;3.15;;;19.20;99.90;;;;;;5015333;28;20033;-82
2022/01/05 12:34:53;;;;;;;20.60;3.75;;;19.20;99.90;;;;;;5012155;28;20216;-81
2022/01/05 12:37:58;;;;;;;15.63;3.58;;;19.00;99.90;;;;;;5014846;28;20117;-81
2022/01/05 12:40:38;;;;;;;14.75;3.25;;;19.00;99.90;;;;;;4954667;29;20099;-80
2022/01/05 12:43:10;;;;;;;14.98;3.22;;;18.90;99.90;;;;;;4954443;29;20122;-82
2022/01/05 12:45:57;;;;;;;13.27;3.33;;;19.00;99.90;;;;;;4954399;29;20555;-81
2022/01/05 12:48:35;;;;;;;14.18;3.80;;;18.90;99.90;;;;;;4954397;29;20050;-81
2022/01/05 12:51:22;;;;;;;15.57;3.40;;;19.00;99.90;;;;;;4937866;29;20047;-80
2022/01/05 12:54:06;;;;;;;15.90;3.53;;;19.00;99.90;;;;;;4953835;29;20102;-80
2022/01/05 12:56:33;;;;;;;14.35;2.95;;;19.00;99.90;;;;;;4953840;29;20079;-80